Ferdinand R Hassler — WTEK — position and weather

sailwx.info

Track history (hours):
 
Tides and Currents Weather Stations Pressure Air Temp Water Temp Dewpoint Dewpoint Depression Visibility Wind Speed Wind Dir Waves Ship Positions

Ferdinand R Hassler

Last reported at 2014-Aug-21 15:33 UTC. Time now 2014-Aug-21 16:07 UTC.
Position N 38°05' W 074°38'.

Length 37 m; draft 3.8 m.

Type: . MMSI: 369970091.

Date/timePositionNaut miles runAvg speedWind from/ knotsBaromVisibWave heightAir tempDewpointWater temp
2014-Aug-21 15:33N 38°05' W 074°38'1512.9
2014-Aug-21 14:25N 38°16' W 074°27'1113.1
2014-Aug-21 13:33N 38°25' W 074°17'1312.8
2014-Aug-21 12:33N 38°35' W 074°07'1312.5
2014-Aug-21 11:33N 38°45' W 073°57'1212.4
2014-Aug-21 10:33N 38°54' W 073°47'1212.1
2014-Aug-21 09:33N 39°03' W 073°37'1212.1
2014-Aug-21 08:33N 39°13' W 073°27'1211.8
2014-Aug-21 07:33N 39°22' W 073°17'1212.3
2014-Aug-21 06:33N 39°32' W 073°07'1212.1
2014-Aug-21 05:33N 39°41' W 072°57'1212.0
2014-Aug-21 04:33N 39°50' W 072°47'1211.9
2014-Aug-21 03:33N 39°59' W 072°38'1212.4
2014-Aug-21 02:33N 40°09' W 072°27'1212.5
2014-Aug-21 01:33N 40°18' W 072°17'1212.4
2014-Aug-21 00:33N 40°28' W 072°06'1212.2
2014-Aug-20 23:33N 40°37' W 071°56'1212.1
2014-Aug-20 22:33N 40°47' W 071°46'1212.1
2014-Aug-20 21:33N 40°56' W 071°36'1212.3
2014-Aug-20 20:33N 41°06' W 071°26'5 4.7
2014-Aug-20 19:33N 41°09' W 071°21'2 1.5
2014-Aug-20 18:33N 41°10' W 071°20'5 4.5
2014-Aug-20 17:33N 41°05' W 071°18'5 5.1
2014-Aug-20 16:33N 41°02' W 071°23'5 5.2
2014-Aug-20 15:33N 41°04' W 071°17'3 2.7
2014-Aug-20 14:33N 41°05' W 071°21'3 2.6
2014-Aug-20 13:33N 41°05' W 071°17'0 0.4
2014-Aug-20 12:33N 41°05' W 071°18'0 0.4
2014-Aug-20 11:33N 41°05' W 071°18'2 1.5
2014-Aug-20 10:33N 41°03' W 071°18'0 0.4
2014-Aug-20 09:33N 41°03' W 071°18'1 1.5
2014-Aug-20 08:33N 41°05' W 071°19'0 0.4
2014-Aug-20 07:33N 41°05' W 071°19'2 1.8
2014-Aug-20 06:33N 41°03' W 071°19'1 0.8
2014-Aug-20 05:33N 41°03' W 071°19'2 1.5
2014-Aug-20 04:33N 41°04' W 071°20'1 1.4
2014-Aug-20 03:33N 41°05' W 071°20'0 0.5
2014-Aug-20 02:33N 41°05' W 071°20'1 0.7
2014-Aug-20 01:33N 41°06' W 071°20'1 0.5
2014-Aug-20 00:33N 41°05' W 071°21'1 1.3
2014-Aug-19 23:33N 41°04' W 071°21'1 0.8
2014-Aug-19 22:33N 41°05' W 071°21'1 0.8
2014-Aug-19 21:33N 41°05' W 071°21'0 0.3
2014-Aug-19 20:33N 41°05' W 071°22'1 0.7
2014-Aug-19 19:33N 41°04' W 071°22'1 0.5
2014-Aug-19 18:33N 41°04' W 071°22'0 0.5
2014-Aug-19 17:33N 41°04' W 071°22'0 0.2
2014-Aug-19 16:33N 41°03' W 071°22'0 0.2
2014-Aug-19 15:33N 41°03' W 071°23'0 0.2
2014-Aug-19 14:33N 41°03' W 071°23'0 0.3
2014-Aug-19 13:33N 41°03' W 071°23'1 1.2
2014-Aug-19 12:33N 41°05' W 071°23'0 0.3
2014-Aug-19 11:33N 41°05' W 071°23'1 0.7
2014-Aug-19 10:34N 41°06' W 071°24'0 0.5
2014-Aug-19 09:33N 41°05' W 071°24'2 1.5
2014-Aug-19 08:33N 41°04' W 071°24'1 1.0
2014-Aug-19 07:33N 41°03' W 071°24'5 5.2
2014-Aug-19 06:33N 41°08' W 071°22'1211.7
2014-Aug-19 05:33N 41°17' W 071°13'1212.4
2014-Aug-19 04:33N 41°26' W 071°02'1312.0
2014-Aug-19 03:30N 41°32' W 070°47'74 8.2
2014-Aug-18 18:31N 42°45' W 070°32'9 9.2
2014-Aug-18 17:33N 42°53' W 070°36'9 9.3
2014-Aug-18 16:33N 43°02' W 070°41'3 2.8
2014-Aug-18 15:33N 43°04' W 070°43'0 0.0
2014-Aug-18 14:33N 43°04' W 070°43'0 0.0
2014-Aug-18 13:33N 43°04' W 070°43'0 0.0
2014-Aug-18 12:33N 43°04' W 070°43'  
2014-Aug-15 21:17N 43°04' W 070°43'4 1.4
2014-Aug-15 18:11N 43°02' W 070°38'0 0.2
2014-Aug-15 17:28N 43°02' W 070°38'1 0.6
2014-Aug-15 16:18N 43°02' W 070°39'3 4.7
2014-Aug-15 15:33N 43°04' W 070°43'0 0.0
2014-Aug-15 14:33N 43°04' W 070°43'0 0.0
2014-Aug-15 13:32N 43°04' W 070°43'0 0.0
2014-Aug-15 12:32N 43°04' W 070°43'0 0.0
2014-Aug-14 19:33N 43°04' W 070°43'  
Track history (hours):
 
Tides and Currents Weather Stations Pressure Air Temp Water Temp Dewpoint Dewpoint Depression Visibility Wind Speed Wind Dir Waves Ship Positions

Ferdinand R Hassler

Last reported at 2014-Aug-21 15:33 UTC. Time now 2014-Aug-21 16:07 UTC.
Position N 38°05' W 074°38'.

Length 37 m; draft 3.8 m.

Type: . MMSI: 369970091.

Date/timePositionNaut miles runAvg speedWind from/ knotsBaromVisibWave heightAir tempDewpointWater temp
2014-Aug-21 15:33N 38°05' W 074°38'1512.9
2014-Aug-21 14:25N 38°16' W 074°27'1113.1
2014-Aug-21 13:33N 38°25' W 074°17'1312.8
2014-Aug-21 12:33N 38°35' W 074°07'1312.5
2014-Aug-21 11:33N 38°45' W 073°57'1212.4
2014-Aug-21 10:33N 38°54' W 073°47'1212.1
2014-Aug-21 09:33N 39°03' W 073°37'1212.1
2014-Aug-21 08:33N 39°13' W 073°27'1211.8
2014-Aug-21 07:33N 39°22' W 073°17'1212.3
2014-Aug-21 06:33N 39°32' W 073°07'1212.1
2014-Aug-21 05:33N 39°41' W 072°57'1212.0
2014-Aug-21 04:33N 39°50' W 072°47'1211.9
2014-Aug-21 03:33N 39°59' W 072°38'1212.4
2014-Aug-21 02:33N 40°09' W 072°27'1212.5
2014-Aug-21 01:33N 40°18' W 072°17'1212.4
2014-Aug-21 00:33N 40°28' W 072°06'1212.2
2014-Aug-20 23:33N 40°37' W 071°56'1212.1
2014-Aug-20 22:33N 40°47' W 071°46'1212.1
2014-Aug-20 21:33N 40°56' W 071°36'1212.3
2014-Aug-20 20:33N 41°06' W 071°26'5 4.7
2014-Aug-20 19:33N 41°09' W 071°21'2 1.5
2014-Aug-20 18:33N 41°10' W 071°20'5 4.5
2014-Aug-20 17:33N 41°05' W 071°18'5 5.1
2014-Aug-20 16:33N 41°02' W 071°23'5 5.2
2014-Aug-20 15:33N 41°04' W 071°17'3 2.7
2014-Aug-20 14:33N 41°05' W 071°21'3 2.6
2014-Aug-20 13:33N 41°05' W 071°17'0 0.4
2014-Aug-20 12:33N 41°05' W 071°18'0 0.4
2014-Aug-20 11:33N 41°05' W 071°18'2 1.5
2014-Aug-20 10:33N 41°03' W 071°18'0 0.4
2014-Aug-20 09:33N 41°03' W 071°18'1 1.5
2014-Aug-20 08:33N 41°05' W 071°19'0 0.4
2014-Aug-20 07:33N 41°05' W 071°19'2 1.8
2014-Aug-20 06:33N 41°03' W 071°19'1 0.8
2014-Aug-20 05:33N 41°03' W 071°19'2 1.5
2014-Aug-20 04:33N 41°04' W 071°20'1 1.4
2014-Aug-20 03:33N 41°05' W 071°20'0 0.5
2014-Aug-20 02:33N 41°05' W 071°20'1 0.7
2014-Aug-20 01:33N 41°06' W 071°20'1 0.5
2014-Aug-20 00:33N 41°05' W 071°21'1 1.3
2014-Aug-19 23:33N 41°04' W 071°21'1 0.8
2014-Aug-19 22:33N 41°05' W 071°21'1 0.8
2014-Aug-19 21:33N 41°05' W 071°21'0 0.3
2014-Aug-19 20:33N 41°05' W 071°22'1 0.7
2014-Aug-19 19:33N 41°04' W 071°22'1 0.5
2014-Aug-19 18:33N 41°04' W 071°22'0 0.5
2014-Aug-19 17:33N 41°04' W 071°22'0 0.2
2014-Aug-19 16:33N 41°03' W 071°22'0 0.2
2014-Aug-19 15:33N 41°03' W 071°23'0 0.2
2014-Aug-19 14:33N 41°03' W 071°23'0 0.3
2014-Aug-19 13:33N 41°03' W 071°23'1 1.2
2014-Aug-19 12:33N 41°05' W 071°23'0 0.3
2014-Aug-19 11:33N 41°05' W 071°23'1 0.7
2014-Aug-19 10:34N 41°06' W 071°24'0 0.5
2014-Aug-19 09:33N 41°05' W 071°24'2 1.5
2014-Aug-19 08:33N 41°04' W 071°24'1 1.0
2014-Aug-19 07:33N 41°03' W 071°24'5 5.2
2014-Aug-19 06:33N 41°08' W 071°22'1211.7
2014-Aug-19 05:33N 41°17' W 071°13'1212.4
2014-Aug-19 04:33N 41°26' W 071°02'1312.0
2014-Aug-19 03:30N 41°32' W 070°47'74 8.2
2014-Aug-18 18:31N 42°45' W 070°32'9 9.2
2014-Aug-18 17:33N 42°53' W 070°36'9 9.3
2014-Aug-18 16:33N 43°02' W 070°41'3 2.8
2014-Aug-18 15:33N 43°04' W 070°43'0 0.0
2014-Aug-18 14:33N 43°04' W 070°43'0 0.0
2014-Aug-18 13:33N 43°04' W 070°43'0 0.0
2014-Aug-18 12:33N 43°04' W 070°43'  
2014-Aug-15 21:17N 43°04' W 070°43'4 1.4
2014-Aug-15 18:11N 43°02' W 070°38'0 0.2
2014-Aug-15 17:28N 43°02' W 070°38'1 0.6
2014-Aug-15 16:18N 43°02' W 070°39'3 4.7
2014-Aug-15 15:33N 43°04' W 070°43'0 0.0
2014-Aug-15 14:33N 43°04' W 070°43'0 0.0
2014-Aug-15 13:32N 43°04' W 070°43'0 0.0
2014-Aug-15 12:32N 43°04' W 070°43'0 0.0
2014-Aug-14 19:33N 43°04' W 070°43'  

Dump ship's entire track history